Time;durP1;ratioP1;P1;durP2;ratioP2;P2;SDS_P1;SDS_P2;PMS_P1;PMS_P2;Temp;Humidity;BMP_temperature;BMP_pressure;BME280_temperature;BME280_humidity;BME280_pressure;Samples;Min_cycle;Max_cycle;Signal;HPM_P1;HPM_P2
2023/07/07 00:00:36;;;;;;;15.20;9.00;;;13.30;99.90;;;;;;5010963;28;20278;-57
2023/07/07 00:03:01;;;;;;;12.30;9.43;;;13.30;99.90;;;;;;5011037;28;20327;-56
2023/07/07 00:05:27;;;;;;;12.17;9.13;;;13.30;99.90;;;;;;5010829;28;20641;-57
2023/07/07 00:07:53;;;;;;;15.07;9.70;;;13.30;99.90;;;;;;5011291;28;20197;-57
2023/07/07 00:10:19;;;;;;;13.23;9.57;;;13.30;99.90;;;;;;5011036;28;20496;-56
2023/07/07 00:12:45;;;;;;;13.43;9.77;;;13.30;99.90;;;;;;5014282;28;20235;-57
2023/07/07 00:15:11;;;;;;;11.60;9.87;;;13.30;99.90;;;;;;5014691;28;20417;-58
2023/07/07 00:17:37;;;;;;;11.23;9.13;;;13.30;99.90;;;;;;5014325;28;20451;-57
2023/07/07 00:20:04;;;;;;;14.13;9.47;;;13.30;99.90;;;;;;5013979;28;20695;-56
2023/07/07 00:22:31;;;;;;;14.17;9.67;;;13.30;99.90;;;;;;5014392;28;20587;-57
2023/07/07 00:24:57;;;;;;;12.90;10.13;;;13.30;99.90;;;;;;5014058;28;20460;-56
2023/07/07 00:27:22;;;;;;;12.23;9.20;;;13.30;99.90;;;;;;5014225;28;20449;-57
2023/07/07 00:29:48;;;;;;;11.70;9.57;;;13.30;99.90;;;;;;5013906;28;20238;-59
2023/07/07 00:32:13;;;;;;;10.00;9.00;;;13.30;99.90;;;;;;5014180;28;20185;-57
2023/07/07 00:34:39;;;;;;;15.47;9.70;;;13.30;99.90;;;;;;5014096;28;20216;-57
2023/07/07 00:37:05;;;;;;;10.30;8.73;;;13.30;99.90;;;;;;5014090;28;20212;-58
2023/07/07 00:39:30;;;;;;;14.17;9.57;;;13.30;99.90;;;;;;5013889;28;20233;-56
2023/07/07 00:41:56;;;;;;;15.03;9.23;;;13.30;99.90;;;;;;5014194;28;20677;-56
2023/07/07 00:44:28;;;;;;;10.67;9.40;;;13.30;99.90;;;;;;5014111;28;20176;-56
2023/07/07 00:46:54;;;;;;;10.60;9.50;;;13.30;99.90;;;;;;5014123;28;20264;-56
2023/07/07 00:49:22;;;;;;;13.63;8.57;;;13.20;99.90;;;;;;5013848;28;20472;-56
2023/07/07 00:52:00;;;;;;;10.40;8.80;;;13.30;99.90;;;;;;5014213;28;20254;-55
2023/07/07 00:54:33;;;;;;;10.20;9.10;;;13.30;99.90;;;;;;5013531;28;20567;-56
2023/07/07 00:57:00;;;;;;;11.43;9.10;;;13.20;99.90;;;;;;5013960;28;20541;-56
2023/07/07 00:59:31;;;;;;;10.13;8.73;;;13.20;99.90;;;;;;5013587;28;20455;-56
2023/07/07 01:02:06;;;;;;;13.27;9.03;;;13.20;99.90;;;;;;5013641;28;20432;-57
2023/07/07 01:04:32;;;;;;;14.23;9.60;;;13.20;99.90;;;;;;5013680;28;20455;-56
2023/07/07 01:07:11;;;;;;;12.97;9.50;;;13.20;99.90;;;;;;5013733;28;20445;-56
2023/07/07 01:09:36;;;;;;;12.20;9.77;;;13.20;99.90;;;;;;5013442;28;20486;-57
2023/07/07 01:12:02;;;;;;;12.53;9.40;;;13.20;99.90;;;;;;5013629;28;20940;-57
2023/07/07 01:14:30;;;;;;;12.10;9.73;;;13.20;99.90;;;;;;5013819;28;20189;-56
2023/07/07 01:17:20;;;;;;;14.03;10.30;;;13.20;99.90;;;;;;5013559;28;20186;-56
2023/07/07 01:20:13;;;;;;;10.07;9.07;;;13.20;99.90;;;;;;5013445;28;20534;-56
2023/07/07 01:22:56;;;;;;;12.33;9.40;;;13.10;99.90;;;;;;5013199;28;20840;-55
2023/07/07 01:25:43;;;;;;;13.67;9.77;;;13.10;99.90;;;;;;5013096;28;20508;-55
2023/07/07 01:28:12;;;;;;;11.73;9.20;;;13.10;99.90;;;;;;5013022;28;20912;-57
2023/07/07 01:31:03;;;;;;;14.00;9.63;;;13.10;99.90;;;;;;5013241;28;20422;-57
2023/07/07 01:33:32;;;;;;;11.20;9.13;;;13.10;99.90;;;;;;5013089;28;20420;-57
2023/07/07 01:35:57;;;;;;;10.77;9.57;;;13.10;99.90;;;;;;5013502;28;20454;-56
2023/07/07 01:38:38;;;;;;;12.43;9.90;;;13.00;99.90;;;;;;5012944;28;20520;-56
2023/07/07 01:41:42;;;;;;;12.23;9.37;;;13.00;99.90;;;;;;5012724;28;20625;-57
2023/07/07 01:44:14;;;;;;;10.20;9.10;;;13.00;99.90;;;;;;5013042;28;20424;-56
2023/07/07 01:46:49;;;;;;;17.40;9.53;;;13.00;99.90;;;;;;5013112;28;20424;-56
2023/07/07 01:49:30;;;;;;;16.57;10.17;;;13.00;99.90;;;;;;5012998;28;20412;-56
2023/07/07 01:52:08;;;;;;;11.93;10.30;;;13.00;99.90;;;;;;5012641;28;20411;-57
2023/07/07 01:54:37;;;;;;;14.00;9.30;;;13.00;99.90;;;;;;5012526;28;20536;-56
2023/07/07 01:57:06;;;;;;;9.93;8.93;;;13.00;99.90;;;;;;5012975;28;20427;-57
2023/07/07 01:59:32;;;;;;;13.03;8.93;;;12.90;99.90;;;;;;5012897;28;21011;-57
2023/07/07 02:01:58;;;;;;;11.27;8.87;;;12.90;99.90;;;;;;5012704;28;20428;-56
2023/07/07 02:04:24;;;;;;;13.83;9.23;;;12.90;99.90;;;;;;5013017;28;20422;-56
2023/07/07 02:06:50;;;;;;;11.97;8.70;;;12.90;99.90;;;;;;5012425;28;20521;-56
2023/07/07 02:09:15;;;;;;;12.90;8.60;;;12.90;99.90;;;;;;5012449;28;20181;-57
2023/07/07 02:11:41;;;;;;;9.17;8.27;;;12.90;99.90;;;;;;5012747;28;20295;-57
2023/07/07 02:14:06;;;;;;;10.13;7.53;;;12.90;99.90;;;;;;5012435;28;20181;-56
2023/07/07 02:16:32;;;;;;;9.53;8.63;;;12.80;99.90;;;;;;5012579;28;20684;-56
2023/07/07 02:18:57;;;;;;;10.03;9.03;;;12.80;99.90;;;;;;5012880;28;20217;-56
2023/07/07 02:21:23;;;;;;;11.90;8.33;;;12.80;99.90;;;;;;5012758;28;20615;-56
2023/07/07 02:23:49;;;;;;;10.50;8.87;;;12.80;99.90;;;;;;5012216;28;20189;-56
2023/07/07 02:26:18;;;;;;;10.40;8.60;;;12.80;99.90;;;;;;5012487;28;20272;-57
2023/07/07 02:28:43;;;;;;;10.53;9.23;;;12.70;99.90;;;;;;5012561;28;20197;-56
2023/07/07 02:31:10;;;;;;;9.73;8.73;;;12.70;99.90;;;;;;5012271;28;20483;-56
2023/07/07 02:33:36;;;;;;;9.57;8.67;;;12.70;99.90;;;;;;5011466;28;20528;-56
2023/07/07 02:36:04;;;;;;;12.30;9.60;;;12.70;99.90;;;;;;5012599;28;20408;-56
2023/07/07 02:38:30;;;;;;;10.40;8.90;;;12.70;99.90;;;;;;5012206;28;20212;-56
2023/07/07 02:40:56;;;;;;;12.40;9.27;;;12.60;99.90;;;;;;5012286;28;20425;-56
2023/07/07 02:43:22;;;;;;;10.13;9.13;;;12.60;99.90;;;;;;5012190;28;20181;-56
2023/07/07 02:45:47;;;;;;;10.03;9.03;;;12.60;99.90;;;;;;5012124;28;20518;-56
2023/07/07 02:48:14;;;;;;;12.30;9.20;;;12.60;99.90;;;;;;5011870;28;20189;-56
2023/07/07 02:50:39;;;;;;;12.10;9.10;;;12.60;99.90;;;;;;5012253;28;20193;-55
2023/07/07 02:53:05;;;;;;;9.60;8.60;;;12.50;99.90;;;;;;5011806;28;20421;-57
2023/07/07 02:55:31;;;;;;;13.10;8.80;;;12.50;99.90;;;;;;5012304;28;20381;-56
2023/07/07 02:57:57;;;;;;;10.50;8.30;;;12.50;99.90;;;;;;5011992;28;20523;-56
2023/07/07 03:00:24;;;;;;;10.30;8.00;;;12.50;99.90;;;;;;5011703;28;20741;-56
2023/07/07 03:02:50;;;;;;;9.80;8.80;;;12.50;99.90;;;;;;5012159;28;20424;-56
2023/07/07 03:05:15;;;;;;;11.63;8.30;;;12.40;99.90;;;;;;5011847;28;20431;-56
2023/07/07 03:07:41;;;;;;;11.70;8.93;;;12.40;99.90;;;;;;5011594;28;20758;-55
2023/07/07 03:10:09;;;;;;;10.10;8.70;;;12.40;99.90;;;;;;5011824;28;20185;-55
2023/07/07 03:12:34;;;;;;;14.13;9.37;;;12.40;99.90;;;;;;5011988;28;20422;-56
2023/07/07 03:15:00;;;;;;;12.00;9.83;;;12.40;99.90;;;;;;5011638;28;20514;-56
2023/07/07 03:17:30;;;;;;;10.00;8.73;;;12.30;99.90;;;;;;5011768;28;20195;-55
2023/07/07 03:19:56;;;;;;;12.27;9.17;;;12.30;99.90;;;;;;5011666;28;20221;-56
2023/07/07 03:22:21;;;;;;;9.07;8.17;;;12.30;99.90;;;;;;5011752;28;20423;-56
2023/07/07 03:24:50;;;;;;;11.37;9.47;;;12.30;99.90;;;;;;5011524;28;20279;-55
2023/07/07 03:27:16;;;;;;;9.67;8.03;;;12.30;99.90;;;;;;5011622;28;20568;-55
2023/07/07 03:29:42;;;;;;;15.53;10.03;;;12.30;99.90;;;;;;5011593;28;20423;-56
2023/07/07 03:32:07;;;;;;;12.67;9.90;;;12.30;99.90;;;;;;5011415;28;20185;-56
2023/07/07 03:34:36;;;;;;;9.10;8.07;;;12.30;99.90;;;;;;5011547;28;20380;-56
2023/07/07 03:37:02;;;;;;;11.17;8.77;;;12.30;99.90;;;;;;5011638;28;20416;-55
2023/07/07 03:39:28;;;;;;;11.97;10.13;;;12.20;99.90;;;;;;5011301;28;20469;-56
2023/07/07 03:41:53;;;;;;;13.30;9.80;;;12.20;99.90;;;;;;5011022;28;20420;-54
2023/07/07 03:44:19;;;;;;;10.50;9.40;;;12.30;99.90;;;;;;5010979;28;20185;-55
2023/07/07 03:46:44;;;;;;;11.50;9.63;;;12.20;99.90;;;;;;5011020;28;20173;-55
2023/07/07 03:49:10;;;;;;;13.77;9.20;;;12.30;99.90;;;;;;5011213;28;20195;-56
2023/07/07 03:51:37;;;;;;;10.83;9.37;;;12.30;99.90;;;;;;5010867;28;20202;-56
2023/07/07 03:54:04;;;;;;;12.53;9.30;;;12.30;99.90;;;;;;5011545;28;20319;-56
2023/07/07 03:56:29;;;;;;;10.67;8.50;;;12.30;99.90;;;;;;5011149;28;20420;-55
2023/07/07 03:58:55;;;;;;;13.80;9.67;;;12.30;99.90;;;;;;5011406;28;21070;-55
2023/07/07 04:01:20;;;;;;;11.00;9.90;;;12.30;99.90;;;;;;5010866;28;20181;-56
2023/07/07 04:03:47;;;;;;;13.23;10.27;;;12.30;99.90;;;;;;5010724;28;20181;-55
2023/07/07 04:06:14;;;;;;;9.50;8.50;;;12.40;99.90;;;;;;5011093;28;20189;-56
2023/07/07 04:08:40;;;;;;;13.13;10.77;;;12.40;99.90;;;;;;5011085;28;20424;-54
2023/07/07 04:11:15;;;;;;;10.40;9.40;;;12.50;99.90;;;;;;5010707;28;20416;-56
2023/07/07 04:13:42;;;;;;;10.73;9.07;;;12.50;99.90;;;;;;5010998;28;20484;-54
2023/07/07 04:16:12;;;;;;;13.17;9.67;;;12.60;99.90;;;;;;5010884;28;20761;-56
2023/07/07 04:18:38;;;;;;;9.90;8.90;;;12.60;99.90;;;;;;5011023;28;20456;-57
2023/07/07 04:21:07;;;;;;;14.33;9.50;;;12.60;99.90;;;;;;5010647;28;20451;-56
2023/07/07 04:23:39;;;;;;;11.10;9.40;;;12.70;99.90;;;;;;5010674;28;20427;-56
2023/07/07 04:26:06;;;;;;;11.20;9.10;;;12.70;99.90;;;;;;5010475;28;20444;-56
2023/07/07 04:28:32;;;;;;;10.60;9.50;;;12.80;99.90;;;;;;5010793;28;20808;-56
2023/07/07 04:30:59;;;;;;;10.47;8.97;;;12.90;99.90;;;;;;5010999;28;20476;-57
2023/07/07 04:33:27;;;;;;;13.13;9.53;;;12.90;99.90;;;;;;5010707;28;21052;-57
2023/07/07 04:35:55;;;;;;;10.60;8.60;;;13.00;99.90;;;;;;5010884;28;20421;-56
2023/07/07 04:38:30;;;;;;;11.27;9.67;;;13.20;99.90;;;;;;5011115;28;20428;-57
2023/07/07 04:41:09;;;;;;;12.67;9.00;;;13.40;99.90;;;;;;5010601;28;20883;-56
2023/07/07 04:43:37;;;;;;;13.00;8.50;;;13.50;99.90;;;;;;5010949;28;20412;-56
2023/07/07 04:46:04;;;;;;;8.20;7.40;;;13.80;99.90;;;;;;5010170;28;20429;-56
2023/07/07 04:48:30;;;;;;;9.63;8.73;;;13.90;99.90;;;;;;5010541;28;20444;-57
2023/07/07 04:51:00;;;;;;;9.90;7.60;;;14.20;99.90;;;;;;5010887;28;20417;-57
2023/07/07 04:53:28;;;;;;;10.07;7.47;;;14.30;99.90;;;;;;5010578;28;20470;-57
2023/07/07 04:55:55;;;;;;;8.60;7.17;;;14.50;99.90;;;;;;5010424;28;20868;-57
2023/07/07 04:58:21;;;;;;;7.97;7.27;;;14.70;99.90;;;;;;5013677;28;20727;-57
2023/07/07 05:00:47;;;;;;;7.43;6.73;;;14.90;99.90;;;;;;5013607;28;20466;-57
2023/07/07 05:03:13;;;;;;;9.27;7.20;;;15.00;99.90;;;;;;5013694;28;20188;-58
2023/07/07 05:05:38;;;;;;;9.20;6.30;;;15.30;1.00;;;;;;5013788;28;20261;-56
2023/07/07 05:08:07;;;;;;;7.50;5.83;;;15.40;1.00;;;;;;5013280;28;20179;-56
2023/07/07 05:10:32;;;;;;;6.80;6.10;;;15.60;1.00;;;;;;5013288;28;20700;-56
2023/07/07 05:12:58;;;;;;;9.87;7.03;;;15.70;99.90;;;;;;5013940;28;20446;-57
2023/07/07 05:15:24;;;;;;;7.63;6.93;;;15.90;99.90;;;;;;5013632;28;20179;-58
2023/07/07 05:17:52;;;;;;;9.57;6.53;;;16.00;1.00;;;;;;5013265;28;20646;-57
2023/07/07 05:20:18;;;;;;;7.23;5.57;;;16.30;59.50;;;;;;5013079;28;20601;-59
2023/07/07 05:22:44;;;;;;;5.90;5.20;;;16.40;18.60;;;;;;5013631;28;20472;-57
2023/07/07 05:25:09;;;;;;;7.80;6.20;;;16.60;99.90;;;;;;5013061;28;20645;-57
2023/07/07 05:27:35;;;;;;;7.50;5.57;;;16.70;99.90;;;;;;5013542;28;20178;-57
2023/07/07 05:30:01;;;;;;;10.27;5.80;;;16.90;99.90;;;;;;5013224;28;20575;-58
2023/07/07 05:32:26;;;;;;;7.83;5.60;;;17.00;20.10;;;;;;5013432;28;20216;-57
2023/07/07 05:34:52;;;;;;;8.90;6.13;;;17.20;9.70;;;;;;5012987;28;20184;-58
2023/07/07 05:37:17;;;;;;;7.37;5.67;;;17.30;1.00;;;;;;5013219;28;20187;-57
2023/07/07 05:39:47;;;;;;;7.67;5.67;;;17.40;1.00;;;;;;5013064;28;20806;-58
2023/07/07 05:42:13;;;;;;;5.53;4.93;;;17.60;1.00;;;;;;5012987;28;20195;-57
2023/07/07 05:44:38;;;;;;;5.90;5.30;;;17.70;1.00;;;;;;5012536;28;20815;-56
2023/07/07 05:47:04;;;;;;;8.27;6.13;;;17.90;1.00;;;;;;5013230;28;20214;-57
2023/07/07 05:49:30;;;;;;;12.07;6.20;;;18.00;1.00;;;;;;5012853;28;20700;-58
2023/07/07 05:51:55;;;;;;;9.73;5.83;;;18.10;1.00;;;;;;5013096;28;20187;-57
2023/07/07 05:54:21;;;;;;;8.57;6.40;;;18.20;1.00;;;;;;5012353;28;20739;-57
2023/07/07 05:56:46;;;;;;;10.07;5.70;;;18.40;1.00;;;;;;5012696;28;20187;-58
2023/07/07 05:59:12;;;;;;;11.60;6.10;;;18.50;1.00;;;;;;5012805;28;20541;-57
2023/07/07 06:01:38;;;;;;;7.87;5.97;;;18.60;1.00;;;;;;5012836;28;20184;-58
2023/07/07 06:04:04;;;;;;;8.23;6.17;;;18.60;1.00;;;;;;5012498;28;20265;-57
2023/07/07 06:06:29;;;;;;;10.97;6.27;;;18.70;1.00;;;;;;5012803;28;20831;-58
2023/07/07 06:08:55;;;;;;;7.67;5.67;;;19.00;1.00;;;;;;5011420;28;20192;-59
2023/07/07 06:11:20;;;;;;;8.60;5.40;;;19.20;1.00;;;;;;5012276;28;20179;-59
2023/07/07 06:13:46;;;;;;;13.70;5.37;;;19.50;1.00;;;;;;5012790;28;20188;-58
2023/07/07 06:16:12;;;;;;;8.83;5.70;;;19.70;1.00;;;;;;5012568;28;20270;-58
2023/07/07 06:18:39;;;;;;;11.80;5.90;;;20.00;1.00;;;;;;5011891;28;20211;-58
2023/07/07 06:21:05;;;;;;;9.23;5.73;;;20.10;1.00;;;;;;5012612;28;20195;-57
2023/07/07 06:23:31;;;;;;;10.00;4.90;;;20.40;1.00;;;;;;5012344;28;20557;-58
2023/07/07 06:25:57;;;;;;;9.90;6.03;;;20.50;1.00;;;;;;5012537;28;20418;-59
2023/07/07 06:28:23;;;;;;;8.43;5.73;;;20.60;1.00;;;;;;5012455;28;20423;-58
2023/07/07 06:30:50;;;;;;;5.73;4.87;;;20.70;1.00;;;;;;5012284;28;20200;-58
2023/07/07 06:33:16;;;;;;;9.87;5.57;;;20.70;1.00;;;;;;5012270;28;20184;-58
2023/07/07 06:35:43;;;;;;;7.97;5.40;;;21.00;1.00;;;;;;5012142;28;20971;-58
2023/07/07 06:38:08;;;;;;;9.90;5.40;;;21.10;1.00;;;;;;5012381;28;20430;-58
2023/07/07 06:40:34;;;;;;;6.87;5.17;;;21.30;1.00;;;;;;5012236;28;20463;-58
2023/07/07 06:43:01;;;;;;;12.30;5.33;;;21.50;1.00;;;;;;5012289;28;20550;-59
2023/07/07 06:45:26;;;;;;;16.33;5.37;;;21.60;1.00;;;;;;5012190;28;20730;-59
2023/07/07 06:47:52;;;;;;;5.10;4.33;;;21.60;1.00;;;;;;5011879;28;20441;-59
2023/07/07 06:50:29;;;;;;;5.23;4.73;;;21.80;1.00;;;;;;5011806;28;20190;-59
2023/07/07 06:52:55;;;;;;;7.70;5.10;;;22.00;1.00;;;;;;5011895;28;20185;-59
2023/07/07 06:55:20;;;;;;;7.10;5.27;;;22.20;1.00;;;;;;5011478;28;20464;-59
2023/07/07 06:57:46;;;;;;;6.77;4.77;;;22.30;1.00;;;;;;5011823;28;20326;-59
2023/07/07 07:00:13;;;;;;;8.10;5.60;;;22.30;1.00;;;;;;5011583;28;20216;-59
2023/07/07 07:02:39;;;;;;;9.20;5.37;;;22.40;1.00;;;;;;5011573;28;20196;-57
2023/07/07 07:05:05;;;;;;;9.60;5.30;;;22.60;1.00;;;;;;5011820;28;20412;-59
2023/07/07 07:07:31;;;;;;;10.20;4.97;;;22.80;1.00;;;;;;5011992;28;20423;-59
2023/07/07 07:09:57;;;;;;;12.03;5.63;;;23.10;1.00;;;;;;5011828;28;20453;-59
2023/07/07 07:12:23;;;;;;;8.47;5.13;;;23.30;1.00;;;;;;5011969;28;20805;-60
2023/07/07 07:14:48;;;;;;;9.00;4.80;;;23.50;1.00;;;;;;5011717;28;20176;-57
2023/07/07 07:17:14;;;;;;;7.50;4.93;;;23.70;1.00;;;;;;5011658;28;20191;-57
2023/07/07 07:19:40;;;;;;;14.57;5.43;;;23.90;1.00;;;;;;5011564;28;20680;-56
2023/07/07 07:22:06;;;;;;;7.93;5.30;;;24.00;1.00;;;;;;5011623;28;20430;-57
2023/07/07 07:24:31;;;;;;;7.93;4.77;;;24.20;1.00;;;;;;5011275;28;20199;-57
2023/07/07 07:26:57;;;;;;;10.90;4.50;;;24.30;1.00;;;;;;5011569;28;20226;-57
2023/07/07 07:29:22;;;;;;;6.30;4.50;;;24.40;1.00;;;;;;5011523;28;20184;-57
2023/07/07 07:31:48;;;;;;;6.20;4.43;;;24.40;1.00;;;;;;5011560;28;20625;-57
2023/07/07 07:34:25;;;;;;;8.23;4.20;;;24.40;1.00;;;;;;5011629;28;20196;-57
2023/07/07 07:36:52;;;;;;;10.13;4.07;;;24.60;1.00;;;;;;5011460;28;20184;-57
2023/07/07 07:39:18;;;;;;;10.30;4.13;;;24.60;1.00;;;;;;5011305;28;20459;-57
2023/07/07 07:41:47;;;;;;;12.27;3.70;;;24.70;1.00;;;;;;5011497;28;20761;-58
2023/07/07 07:44:14;;;;;;;8.30;3.60;;;25.00;1.00;;;;;;5011486;28;20418;-57
2023/07/07 07:46:41;;;;;;;6.23;3.30;;;25.10;1.00;;;;;;5011225;28;20981;-56
2023/07/07 07:49:07;;;;;;;3.63;3.23;;;25.00;1.00;;;;;;5010964;28;20494;-57
2023/07/07 07:51:32;;;;;;;5.37;3.10;;;25.10;1.00;;;;;;5011500;28;20529;-57
2023/07/07 07:53:58;;;;;;;5.77;3.23;;;25.30;1.00;;;;;;5011321;28;20231;-57
2023/07/07 07:56:23;;;;;;;4.17;2.90;;;25.30;1.00;;;;;;5010927;28;20191;-57
2023/07/07 07:58:49;;;;;;;3.60;3.00;;;25.40;1.00;;;;;;5011399;28;20528;-57
2023/07/07 08:01:14;;;;;;;5.57;2.80;;;25.40;1.00;;;;;;5011272;28;20245;-57
2023/07/07 08:03:40;;;;;;;4.93;2.80;;;25.60;1.00;;;;;;5010798;28;20263;-57
2023/07/07 08:06:06;;;;;;;4.27;2.73;;;25.90;1.00;;;;;;5010750;28;20180;-57
2023/07/07 08:08:31;;;;;;;3.73;2.67;;;26.00;1.00;;;;;;5011059;28;20180;-57
2023/07/07 08:10:57;;;;;;;7.63;2.47;;;26.00;1.00;;;;;;5010917;28;20529;-57
2023/07/07 08:13:22;;;;;;;3.17;2.70;;;26.20;1.00;;;;;;5011175;28;20176;-57
2023/07/07 08:15:48;;;;;;;4.20;2.63;;;26.40;1.00;;;;;;5010874;28;20233;-57
2023/07/07 08:18:14;;;;;;;3.30;2.40;;;26.50;1.00;;;;;;5011075;28;20192;-57
2023/07/07 08:20:39;;;;;;;4.20;2.70;;;26.70;1.00;;;;;;5011033;28;20674;-56
2023/07/07 08:23:05;;;;;;;5.83;2.70;;;26.90;1.00;;;;;;5010979;28;20192;-57
2023/07/07 08:25:34;;;;;;;3.87;2.40;;;27.20;1.00;;;;;;5010817;28;20186;-58
2023/07/07 08:28:00;;;;;;;3.77;2.50;;;27.40;99.90;;;;;;5010588;28;20185;-58
2023/07/07 08:30:25;;;;;;;4.40;2.40;;;27.40;99.90;;;;;;5010904;28;20423;-57
2023/07/07 08:32:51;;;;;;;4.40;2.10;;;27.40;99.90;;;;;;5013050;28;20270;-58
2023/07/07 08:35:17;;;;;;;2.30;2.03;;;27.10;99.90;;;;;;5013778;28;20191;-58
2023/07/07 08:37:42;;;;;;;6.63;2.93;;;27.20;99.90;;;;;;5014398;28;20180;-58
2023/07/07 08:40:17;;;;;;;4.43;2.67;;;27.20;99.90;;;;;;5014123;28;20204;-59
2023/07/07 08:42:45;;;;;;;6.70;3.30;;;27.40;99.90;;;;;;5014373;28;20562;-58
2023/07/07 08:45:17;;;;;;;3.57;2.73;;;27.50;99.90;;;;;;5013578;28;20780;-58
2023/07/07 08:47:46;;;;;;;3.37;2.57;;;27.50;99.90;;;;;;5013703;28;20917;-58
2023/07/07 08:50:35;;;;;;;4.23;2.70;;;27.70;99.90;;;;;;5013978;28;20453;-58
2023/07/07 08:53:10;;;;;;;2.77;2.17;;;28.00;99.90;;;;;;5014085;28;20443;-59
2023/07/07 08:56:06;;;;;;;4.10;2.73;;;28.20;99.90;;;;;;5013314;28;20481;-58
2023/07/07 08:59:12;;;;;;;5.47;2.80;;;28.10;99.90;;;;;;5013872;28;20423;-58
2023/07/07 09:01:43;;;;;;;6.60;2.80;;;28.30;99.90;;;;;;5046981;28;20443;-55
2023/07/07 09:04:21;;;;;;;4.90;2.40;;;28.50;99.90;;;;;;5003361;28;20407;-54
2023/07/07 09:07:24;;;;;;;6.53;2.60;;;28.50;99.90;;;;;;5001372;28;20414;-55
2023/07/07 09:10:40;;;;;;;5.67;2.80;;;28.50;99.90;;;;;;5030810;28;20462;-55
2023/07/07 09:13:39;;;;;;;2.67;2.10;;;28.90;99.90;;;;;;5074430;28;20401;-56
2023/07/07 09:16:14;;;;;;;4.10;2.70;;;29.30;99.90;;;;;;5046100;28;20442;-58
2023/07/07 09:18:48;;;;;;;4.23;2.50;;;29.50;99.90;;;;;;5013154;28;20414;-56
2023/07/07 09:21:27;;;;;;;6.13;2.60;;;29.60;99.90;;;;;;5013580;28;20468;-57
2023/07/07 09:23:57;;;;;;;3.87;2.73;;;29.80;99.90;;;;;;5013467;28;20867;-57
2023/07/07 09:26:42;;;;;;;3.13;2.60;;;29.80;99.90;;;;;;5013311;28;20412;-58
2023/07/07 09:29:19;;;;;;;8.20;2.90;;;29.50;99.90;;;;;;5013359;28;20399;-61
2023/07/07 09:31:45;;;;;;;8.13;2.77;;;29.30;99.90;;;;;;5013388;28;20411;-57
2023/07/07 09:34:13;;;;;;;3.93;2.30;;;29.40;99.90;;;;;;5012916;28;20789;-56
2023/07/07 09:36:57;;;;;;;4.17;2.43;;;29.50;99.90;;;;;;5013474;28;20419;-56
2023/07/07 09:39:32;;;;;;;5.43;2.70;;;29.50;99.90;;;;;;5013513;28;20454;-56
2023/07/07 09:42:13;;;;;;;4.03;2.73;;;29.60;99.90;;;;;;5013194;28;20777;-57
2023/07/07 09:45:17;;;;;;;4.90;2.30;;;29.40;99.90;;;;;;5013091;28;20427;-55
2023/07/07 09:47:51;;;;;;;4.47;2.40;;;29.10;99.90;;;;;;5012836;28;20427;-57
2023/07/07 09:50:20;;;;;;;6.20;2.67;;;28.90;99.90;;;;;;5013054;28;20407;-58
2023/07/07 09:52:50;;;;;;;5.40;2.50;;;29.10;99.90;;;;;;5012682;28;20419;-57
2023/07/07 09:55:36;;;;;;;5.70;2.57;;;29.50;99.90;;;;;;5012530;28;20471;-57
2023/07/07 09:58:06;;;;;;;2.50;2.20;;;29.80;99.90;;;;;;5013362;28;20434;-58
2023/07/07 10:00:34;;;;;;;4.60;2.97;;;30.20;99.90;;;;;;5012631;28;20994;-58
2023/07/07 10:03:03;;;;;;;2.50;2.30;;;30.20;99.90;;;;;;5012930;28;20427;-56
2023/07/07 10:05:34;;;;;;;4.30;2.40;;;30.30;99.90;;;;;;5012842;28;20430;-56
2023/07/07 10:08:05;;;;;;;6.73;2.40;;;30.00;99.90;;;;;;5012531;28;20887;-57
2023/07/07 10:10:31;;;;;;;4.00;2.40;;;29.70;99.90;;;;;;5013018;28;20450;-57
2023/07/07 10:12:57;;;;;;;3.13;2.20;;;29.50;99.90;;;;;;5012653;28;20863;-60
2023/07/07 10:15:23;;;;;;;4.47;2.37;;;29.50;99.90;;;;;;5012756;28;20442;-59
2023/07/07 10:17:53;;;;;;;4.53;2.50;;;29.40;99.90;;;;;;5012869;28;20180;-60
2023/07/07 10:20:20;;;;;;;3.73;2.40;;;29.60;99.90;;;;;;5012679;28;20203;-60
2023/07/07 10:22:45;;;;;;;2.57;2.23;;;29.60;99.90;;;;;;5012667;28;20434;-58
2023/07/07 10:25:15;;;;;;;2.40;2.00;;;29.30;99.90;;;;;;5013007;28;20415;-61
2023/07/07 10:27:50;;;;;;;4.07;2.67;;;29.50;99.90;;;;;;5012541;28;20187;-59
2023/07/07 10:30:15;;;;;;;5.57;2.70;;;29.50;99.90;;;;;;5012618;28;20398;-55
2023/07/07 10:32:42;;;;;;;3.40;2.00;;;29.90;99.90;;;;;;5012710;28;20899;-54
2023/07/07 10:35:08;;;;;;;3.03;2.10;;;30.50;99.90;;;;;;5012462;28;20191;-59
2023/07/07 10:37:37;;;;;;;5.70;2.10;;;30.80;99.90;;;;;;5011606;28;20414;-59
2023/07/07 10:40:04;;;;;;;2.27;2.00;;;31.10;99.90;;;;;;5011480;28;20920;-57
2023/07/07 10:42:31;;;;;;;3.90;2.23;;;31.00;99.90;;;;;;5012323;28;20514;-59
2023/07/07 10:44:59;;;;;;;3.43;2.70;;;30.80;99.90;;;;;;5012094;28;20419;-59
2023/07/07 10:47:28;;;;;;;3.83;2.60;;;30.50;99.90;;;;;;5011745;28;20518;-59
2023/07/07 10:49:56;;;;;;;3.90;2.53;;;30.30;99.90;;;;;;5012185;28;20848;-59
2023/07/07 10:52:52;;;;;;;4.83;1.97;;;30.40;99.90;;;;;;5012372;28;20868;-59
2023/07/07 10:55:31;;;;;;;4.70;2.20;;;30.60;99.90;;;;;;5010747;28;20475;-59
2023/07/07 10:58:29;;;;;;;3.87;2.20;;;30.70;99.90;;;;;;5012236;28;20415;-58
2023/07/07 11:01:17;;;;;;;2.40;2.20;;;30.70;99.90;;;;;;5011790;28;20427;-59
2023/07/07 11:04:20;;;;;;;4.03;2.30;;;30.90;99.90;;;;;;5011932;28;20466;-58
2023/07/07 11:06:55;;;;;;;3.83;2.23;;;31.10;99.90;;;;;;5011990;28;20747;-59
2023/07/07 11:09:45;;;;;;;4.00;2.70;;;30.80;99.90;;;;;;5011508;28;20462;-59
2023/07/07 11:12:22;;;;;;;2.83;2.30;;;31.10;99.90;;;;;;5011862;28;20457;-59
2023/07/07 11:15:21;;;;;;;2.83;2.13;;;31.70;99.90;;;;;;5011569;28;20407;-60
2023/07/07 11:18:04;;;;;;;3.93;2.13;;;32.10;99.90;;;;;;5011785;28;20415;-59
2023/07/07 11:20:48;;;;;;;4.13;2.03;;;32.30;99.90;;;;;;5011789;28;20540;-59
2023/07/07 11:23:19;;;;;;;3.63;2.63;;;32.10;99.90;;;;;;5011339;28;20411;-59
2023/07/07 11:25:50;;;;;;;2.83;2.10;;;31.40;99.90;;;;;;5011317;28;20419;-59
2023/07/07 11:28:21;;;;;;;2.83;2.37;;;31.70;99.90;;;;;;5011237;28;20883;-59
2023/07/07 11:31:36;;;;;;;3.13;2.50;;;32.00;99.90;;;;;;5011175;28;20427;-58
2023/07/07 11:34:13;;;;;;;4.70;2.20;;;31.90;99.90;;;;;;5011583;28;20407;-59
2023/07/07 11:36:42;;;;;;;3.93;2.47;;;31.90;99.90;;;;;;5010039;28;20450;-60
2023/07/07 11:39:29;;;;;;;2.97;2.37;;;31.60;99.90;;;;;;5011509;28;20803;-60
2023/07/07 11:42:26;;;;;;;4.40;2.63;;;31.50;99.90;;;;;;5011743;28;20422;-60
2023/07/07 11:45:13;;;;;;;3.43;2.23;;;31.50;99.90;;;;;;5011409;28;20454;-60
2023/07/07 11:47:58;;;;;;;3.37;2.30;;;32.10;99.90;;;;;;5011021;28;20508;-60
2023/07/07 11:50:57;;;;;;;3.00;2.00;;;32.30;99.90;;;;;;5010842;28;20450;-59
2023/07/07 11:53:42;;;;;;;5.43;2.60;;;32.40;99.90;;;;;;5011209;28;20410;-59
2023/07/07 11:56:25;;;;;;;3.53;2.37;;;32.60;99.90;;;;;;5011282;28;20833;-60
2023/07/07 11:59:12;;;;;;;3.13;2.13;;;33.00;99.90;;;;;;5011428;28;20463;-60
2023/07/07 12:01:42;;;;;;;5.07;2.40;;;33.50;99.90;;;;;;5011491;28;20811;-60
2023/07/07 12:04:30;;;;;;;2.40;2.10;;;33.40;99.90;;;;;;5011250;28;20464;-60
2023/07/07 12:07:03;;;;;;;2.20;2.00;;;33.10;99.90;;;;;;5012526;28;20412;-60
2023/07/07 12:09:46;;;;;;;2.60;2.10;;;32.60;99.90;;;;;;5014818;28;20517;-60
2023/07/07 12:12:36;;;;;;;3.77;2.30;;;32.40;99.90;;;;;;5014708;28;20446;-60
2023/07/07 12:15:19;;;;;;;2.30;2.10;;;32.20;99.90;;;;;;5014873;28;20411;-60
2023/07/07 12:17:52;;;;;;;4.13;2.30;;;32.20;99.90;;;;;;5014658;28;20514;-57
2023/07/07 12:20:25;;;;;;;3.70;2.33;;;32.10;99.90;;;;;;5014414;28;20801;-59
2023/07/07 12:22:51;;;;;;;3.33;2.20;;;32.20;99.90;;;;;;5014435;28;20430;-58
2023/07/07 12:25:25;;;;;;;3.57;2.37;;;32.40;99.90;;;;;;5013956;28;20902;-59
2023/07/07 12:27:52;;;;;;;4.07;2.37;;;32.40;99.90;;;;;;5014302;28;20271;-60
2023/07/07 12:30:30;;;;;;;3.70;2.40;;;32.60;99.90;;;;;;5013963;28;20427;-59
2023/07/07 12:32:57;;;;;;;3.33;2.17;;;32.20;99.90;;;;;;5014690;28;20468;-59
2023/07/07 12:35:31;;;;;;;3.10;2.43;;;32.30;99.90;;;;;;5014210;28;20419;-59
2023/07/07 12:38:18;;;;;;;6.93;2.43;;;32.50;99.90;;;;;;5014213;28;20802;-59
2023/07/07 12:40:45;;;;;;;2.50;2.30;;;32.70;99.90;;;;;;5014167;28;20458;-58
2023/07/07 12:43:43;;;;;;;2.40;2.20;;;32.30;99.90;;;;;;5013739;28;20514;-59
2023/07/07 12:46:31;;;;;;;3.17;2.33;;;32.50;99.90;;;;;;5013463;28;20481;-59
2023/07/07 12:49:03;;;;;;;3.10;2.20;;;32.80;99.90;;;;;;5013593;28;20530;-58
2023/07/07 12:51:31;;;;;;;3.77;2.53;;;32.50;99.90;;;;;;5014015;28;20399;-58
2023/07/07 12:53:57;;;;;;;3.10;2.40;;;32.60;99.90;;;;;;5013359;28;20475;-59
2023/07/07 12:56:28;;;;;;;3.50;2.87;;;32.00;99.90;;;;;;5013744;28;20397;-59
2023/07/07 12:58:57;;;;;;;3.43;2.77;;;32.10;99.90;;;;;;5013834;28;20200;-59
2023/07/07 13:01:40;;;;;;;2.83;2.60;;;32.20;99.90;;;;;;5013508;28;20407;-60
2023/07/07 13:04:08;;;;;;;3.70;2.50;;;32.10;99.90;;;;;;5013320;28;20418;-59